Time;durP1;ratioP1;P1;durP2;ratioP2;P2;SDS_P1;SDS_P2;PMS_P1;PMS_P2;Temp;Humidity;BMP_temperature;BMP_pressure;BME280_temperature;BME280_humidity;BME280_pressure;Samples;Min_cycle;Max_cycle;Signal;HPM_P1;HPM_P2
2019/08/31 00:00:22;;;;;;;12.4;10.3;;;;;;;18.54;82.15723;942.2045;;;;
2019/08/31 00:02:55;;;;;;;13.3;9.8;;;;;;;18.61;81.8457;942.1178;;;;
2019/08/31 00:05:30;;;;;;;12.4;10.2;;;;;;;18.48;82.24023;942.0577;;;;
2019/08/31 00:07:59;;;;;;;12.4;11.1;;;;;;;17.97;84.72461;941.9802;;;;
2019/08/31 00:10:29;;;;;;;14.8;10.5;;;;;;;18.11;84.40137;942.0399;;;;
2019/08/31 00:13:18;;;;;;;12;10.8;;;;;;;17.95;84.82324;942.0215;;;;
2019/08/31 00:15:54;;;;;;;11.3;10.1;;;;;;;18.01;84.55859;942.053;;;;
2019/08/31 00:18:25;;;;;;;11.9;10.6;;;;;;;18.15;84.01367;942.0644;;;;
2019/08/31 00:21:01;;;;;;;11.5;10.3;;;;;;;18.13;83.87109;942.0292;;;;
2019/08/31 00:23:41;;;;;;;12.2;10.4;;;;;;;17.94;84.58984;941.9637;;;;
2019/08/31 00:26:12;;;;;;;11.7;10.6;;;;;;;17.95;84.61426;941.9603;;;;
2019/08/31 00:28:49;;;;;;;11.5;10.3;;;;;;;17.9;84.80371;941.9803;;;;
2019/08/31 00:31:22;;;;;;;13.3;11.1;;;;;;;17.96;84.41895;941.9618;;;;
2019/08/31 00:36:21;;;;;;;12.3;10.7;;;;;;;18.05;84.03125;941.9866;;;;
2019/08/31 00:38:45;;;;;;;13.5;10.6;;;;;;;18;84.36816;941.8839;;;;
2019/08/31 00:41:11;;;;;;;11.6;10.4;;;;;;;;;;;;;
2019/08/31 00:43:36;;;;;;;11.5;10.3;;;;;;;;;;;;;
2019/08/31 00:46:13;;;;;;;11;9.8;;;;;;;;;;;;;
2019/08/31 00:48:26;;;;;;;13.1;10.9;;;;;;;;;;;;;
2019/08/31 00:50:53;;;;;;;14.4;10.6;;;;;;;;;;;;;
2019/08/31 00:53:16;;;;;;;13.4;10.2;;;;;;;;;;;;;
2019/08/31 00:55:44;;;;;;;12.3;11;;;;;;;;;;;;;
2019/08/31 00:58:08;;;;;;;15.8;10.9;;;;;;;;;;;;;
2019/08/31 01:00:33;;;;;;;11.4;10.2;;;;;;;;;;;;;
2019/08/31 01:02:58;;;;;;;11.5;10.3;;;;;;;;;;;;;
2019/08/31 01:05:22;;;;;;;13;10.5;;;;;;;;;;;;;
2019/08/31 01:07:50;;;;;;;13.3;10.2;;;;;;;;;;;;;
2019/08/31 01:10:14;;;;;;;14.6;10.2;;;;;;;;;;;;;
2019/08/31 01:12:40;;;;;;;12.5;10;;;;;;;;;;;;;
2019/08/31 01:15:09;;;;;;;12;10;;;;;;;;;;;;;
2019/08/31 01:17:32;;;;;;;12.9;10.3;;;;;;;;;;;;;
2019/08/31 01:19:58;;;;;;;11.9;10.3;;;;;;;;;;;;;
2019/08/31 01:22:28;;;;;;;11.3;10.2;;;;;;;;;;;;;
2019/08/31 01:24:50;;;;;;;13.8;10.8;;;;;;;;;;;;;
2019/08/31 01:27:15;;;;;;;13.9;10.5;;;;;;;;;;;;;
2019/08/31 01:32:13;;;;;;;13.6;11.5;;;;;;;;;;;;;
2019/08/31 01:34:36;;;;;;;13;10.1;;;;;;;;;;;;;
2019/08/31 01:37:03;;;;;;;14.3;10.7;;;;;;;;;;;;;
2019/08/31 01:39:28;;;;;;;12.1;10.9;;;;;;;;;;;;;
2019/08/31 01:41:53;;;;;;;12.6;10.9;;;;;;;;;;;;;
2019/08/31 01:44:20;;;;;;;12.2;10.9;;;;;;;;;;;;;
2019/08/31 01:46:46;;;;;;;14.3;11.1;;;;;;;;;;;;;
2019/08/31 01:49:10;;;;;;;14.8;11.4;;;;;;;;;;;;;
2019/08/31 01:52:24;;;;;;;13;11.6;;;;;;;;;;;;;
2019/08/31 01:54:38;;;;;;;14.3;11.9;;;;;;;;;;;;;
2019/08/31 01:57:08;;;;;;;13.7;11.6;;;;;;;;;;;;;
2019/08/31 01:59:30;;;;;;;13.6;11.2;;;;;;;;;;;;;
2019/08/31 02:01:55;;;;;;;12.1;10.8;;;;;;;;;;;;;
2019/08/31 02:04:20;;;;;;;13.4;10.4;;;;;;;;;;;;;
2019/08/31 02:06:47;;;;;;;13.1;11.1;;;;;;;;;;;;;
2019/08/31 02:09:11;;;;;;;12.4;11;;;;;;;;;;;;;
2019/08/31 02:11:42;;;;;;;12.9;10.4;;;;;;;;;;;;;
2019/08/31 02:14:22;;;;;;;12;10.4;;;;;;;;;;;;;
2019/08/31 02:17:17;;;;;;;13.3;10.8;;;;;;;;;;;;;
2019/08/31 02:22:18;;;;;;;12.8;10.5;;;;;;;;;;;;;
2019/08/31 02:24:46;;;;;;;12.3;10;;;;;;;;;;;;;
2019/08/31 02:29:40;;;;;;;13.4;10.1;;;;;;;;;;;;;
2019/08/31 02:32:02;;;;;;;12;10.8;;;;;;;;;;;;;
2019/08/31 02:34:29;;;;;;;12.3;10.1;;;;;;;;;;;;;
2019/08/31 02:37:01;;;;;;;13.4;10.7;;;;;;;;;;;;;
2019/08/31 02:39:21;;;;;;;12.9;10.9;;;;;;;;;;;;;
2019/08/31 02:42:16;;;;;;;12.6;11.1;;;;;;;;;;;;;
2019/08/31 02:45:18;;;;;;;17.3;11.8;;;;;;;;;;;;;
2019/08/31 02:47:45;;;;;;;15.9;11.1;;;;;;;;;;;;;
2019/08/31 02:50:13;;;;;;;12.7;10.8;;;;;;;;;;;;;
2019/08/31 02:52:37;;;;;;;15.9;11.8;;;;;;;;;;;;;
2019/08/31 02:55:04;;;;;;;13.7;10.9;;;;;;;;;;;;;
2019/08/31 02:57:33;;;;;;;12.3;10.3;;;;;;;;;;;;;
2019/08/31 03:00:17;;;;;;;12.2;10.1;;;;;;;;;;;;;
2019/08/31 03:02:42;;;;;;;11.6;9.9;;;;;;;;;;;;;
2019/08/31 03:05:20;;;;;;;11;9.9;;;;;;;;;;;;;
2019/08/31 03:07:35;;;;;;;15.1;10.7;;;;;;;;;;;;;
2019/08/31 03:10:00;;;;;;;11.4;10;;;;;;;;;;;;;
2019/08/31 03:12:27;;;;;;;15.2;10.4;;;;;;;;;;;;;
2019/08/31 03:14:52;;;;;;;12.4;10.4;;;;;;;;;;;;;
2019/08/31 03:17:15;;;;;;;13.4;10.7;;;;;;;;;;;;;
2019/08/31 03:19:44;;;;;;;11.6;10.1;;;;;;;;;;;;;
2019/08/31 03:22:09;;;;;;;12.2;10.4;;;;;;;;;;;;;
2019/08/31 03:24:35;;;;;;;13.4;10;;;;;;;;;;;;;
2019/08/31 03:27:01;;;;;;;15.3;10.9;;;;;;;;;;;;;
2019/08/31 03:29:28;;;;;;;14;10.9;;;;;;;;;;;;;
2019/08/31 03:31:52;;;;;;;11.8;10.6;;;;;;;;;;;;;
2019/08/31 03:34:17;;;;;;;11.6;10.4;;;;;;;;;;;;;
2019/08/31 03:36:42;;;;;;;14.1;10.7;;;;;;;;;;;;;
2019/08/31 03:39:10;;;;;;;14.3;11.4;;;;;;;;;;;;;
2019/08/31 03:43:59;;;;;;;12.3;11;;;;;;;;;;;;;
2019/08/31 03:46:28;;;;;;;12.5;11.2;;;;;;;;;;;;;
2019/08/31 03:48:53;;;;;;;14.7;11.6;;;;;;;;;;;;;
2019/08/31 03:51:16;;;;;;;13.2;10.6;;;;;;;;;;;;;
2019/08/31 03:53:44;;;;;;;11.6;10.3;;;;;;;;;;;;;
2019/08/31 03:56:12;;;;;;;12.6;10.8;;;;;;;;;;;;;
2019/08/31 03:58:37;;;;;;;14.1;10.9;;;;;;;;;;;;;
2019/08/31 04:03:12;;;;;;;12.6;11.1;;;;;;;16.37;87.50586;940.6525;;;;
2019/08/31 04:05:40;;;;;;;12.5;11.2;;;;;;;16.36;88.68457;940.6558;;;;
2019/08/31 04:08:07;;;;;;;16.3;11.7;;;;;;;16.25;89.10059;940.6166;;;;
2019/08/31 04:10:32;;;;;;;14.5;11.8;;;;;;;16.34;88.75977;940.6174;;;;
2019/08/31 04:13:11;;;;;;;15.4;10.6;;;;;;;16.62;86.32715;940.5912;;;;
2019/08/31 04:15:30;;;;;;;16.2;11;;;;;;;16.74;85.58789;940.633;;;;
2019/08/31 04:17:54;;;;;;;15;11.1;;;;;;;16.72;85.98828;940.6379;;;;
2019/08/31 04:20:23;;;;;;;14.8;11.6;;;;;;;16.66;86.19531;940.6616;;;;
2019/08/31 04:22:47;;;;;;;13.3;10.8;;;;;;;16.39;87.2666;940.5663;;;;
2019/08/31 04:25:12;;;;;;;12.1;10.4;;;;;;;16.54;86.23047;940.6761;;;;
2019/08/31 04:27:40;;;;;;;13.8;11.6;;;;;;;16.25;88.09375;940.6182;;;;
2019/08/31 04:30:12;;;;;;;14.1;11;;;;;;;16.5;86.99902;940.6532;;;;
2019/08/31 04:32:45;;;;;;;13.3;11.1;;;;;;;16.7;85.34766;940.5867;;;;
2019/08/31 04:35:17;;;;;;;14.4;11.3;;;;;;;16.74;84.87012;940.666;;;;
2019/08/31 04:37:50;;;;;;;15.4;11.9;;;;;;;16.21;88.61914;940.7252;;;;
2019/08/31 04:40:22;;;;;;;14.1;12.1;;;;;;;16.31;88.09473;940.6948;;;;
2019/08/31 04:42:48;;;;;;;13;11.7;;;;;;;16.38;87.24023;940.7006;;;;
2019/08/31 04:45:18;;;;;;;15.5;11.2;;;;;;;16.57;85.94629;940.6573;;;;
2019/08/31 04:47:51;;;;;;;14.1;11.2;;;;;;;16.56;85.73633;940.6575;;;;
2019/08/31 04:50:15;;;;;;;11.3;10.1;;;;;;;16.48;86.00977;940.7299;;;;
2019/08/31 04:52:37;;;;;;;14.7;10.8;;;;;;;16.34;86.46875;940.6199;;;;
2019/08/31 04:55:10;;;;;;;14.5;10.6;;;;;;;16.35;86.3457;940.68;;;;
2019/08/31 04:57:45;;;;;;;11.5;10.3;;;;;;;16.5;85.73535;940.6846;;;;
2019/08/31 05:00:15;;;;;;;13.2;10.2;;;;;;;16.47;86.10059;940.6158;;;;
2019/08/31 05:02:40;;;;;;;15;10.6;;;;;;;16.65;85.64941;940.5547;;;;
2019/08/31 05:05:11;;;;;;;14.5;10.9;;;;;;;16.82;85.15234;940.5544;;;;
2019/08/31 05:07:41;;;;;;;11.2;10;;;;;;;16.96;84.67871;940.5592;;;;
2019/08/31 05:10:10;;;;;;;13.5;10.1;;;;;;;16.98;83.59473;940.5405;;;;
2019/08/31 05:12:37;;;;;;;16.9;10.3;;;;;;;17;84.31641;940.5588;;;;
2019/08/31 05:15:19;;;;;;;11.8;10.1;;;;;;;16.86;85.43555;940.5659;;;;
2019/08/31 05:17:46;;;;;;;12;10.4;;;;;;;17;84.32813;940.5596;;;;
2019/08/31 05:20:15;;;;;;;13.5;9.8;;;;;;;17.06;84.13184;940.5478;;;;
2019/08/31 05:22:43;;;;;;;12.2;10.4;;;;;;;17.04;84.04688;940.6174;;;;
2019/08/31 05:25:10;;;;;;;10.8;9.6;;;;;;;17.02;84.30957;940.5942;;;;
2019/08/31 05:27:40;;;;;;;12.1;10.3;;;;;;;17.15;83.82422;940.637;;;;
2019/08/31 05:30:14;;;;;;;12.5;10.5;;;;;;;17.01;84.66602;940.6078;;;;
2019/08/31 05:32:38;;;;;;;12.5;10.7;;;;;;;16.83;85.44141;940.6186;;;;
2019/08/31 05:35:02;;;;;;;13;10.1;;;;;;;16.87;85.77441;940.6406;;;;
2019/08/31 05:37:32;;;;;;;11.2;10.1;;;;;;;16.94;85.3252;940.5948;;;;
2019/08/31 05:40:14;;;;;;;12.4;10.5;;;;;;;17.01;85.61621;940.5289;;;;
2019/08/31 05:43:18;;;;;;;12.4;9.7;;;;;;;17.33;84.36914;940.4595;;;;
2019/08/31 05:45:45;;;;;;;10.6;8.8;;;;;;;17.72;83.08496;940.4631;;;;
2019/08/31 05:48:17;;;;;;;10.7;9;;;;;;;17.88;82.54492;940.4956;;;;
2019/08/31 05:50:49;;;;;;;11.2;8.4;;;;;;;18.36;81.28711;940.4942;;;;
2019/08/31 05:53:12;;;;;;;13.4;9;;;;;;;18.83;78.53613;940.4597;;;;
2019/08/31 05:55:42;;;;;;;9.5;8.5;;;;;;;19.19;76.45703;940.5028;;;;
2019/08/31 05:58:09;;;;;;;11.1;8.2;;;;;;;19.24;76.27832;940.4481;;;;
2019/08/31 06:03:11;;;;;;;10.4;7.7;;;;;;;19.5;75.40332;940.3984;;;;
2019/08/31 06:06:15;;;;;;;11.5;8;;;;;;;19.63;75.40137;940.4724;;;;
2019/08/31 06:14:17;;;;;;;10;6.7;;;;;;;22.21;65.67676;940.2839;;;;
2019/08/31 06:16:31;;;;;;;9.6;6.2;;;;;;;22.77;63.96289;940.2967;;;;
2019/08/31 06:19:31;;;;;;;7.1;6.4;;;;;;;23.32;61.36133;940.2791;;;;
2019/08/31 06:25:57;;;;;;;7.8;6;;;;;;;24.07;59.59375;940.204;;;;
2019/08/31 06:28:14;;;;;;;10.5;6.2;;;;;;;24.59;57.96484;940.2059;;;;
2019/08/31 06:30:45;;;;;;;10.7;5.9;;;;;;;24.88;57.29395;940.1495;;;;
2019/08/31 06:33:10;;;;;;;9.3;5.6;;;;;;;24.56;57.29004;940.1297;;;;
2019/08/31 06:35:43;;;;;;;8.8;6.1;;;;;;;24.34;58.14453;939.984;;;;
2019/08/31 06:38:15;;;;;;;8.4;5.7;;;;;;;24.41;58.11816;940.0722;;;;
2019/08/31 06:40:53;;;;;;;6.8;6.1;;;;;;;24.92;57.12402;940.0661;;;;
2019/08/31 06:43:11;;;;;;;9.3;5.9;;;;;;;25.18;56.89648;940.0048;;;;
2019/08/31 06:45:54;;;;;;;6.6;5.9;;;;;;;24.58;58.16309;939.9874;;;;
2019/08/31 06:48:17;;;;;;;9.3;6.2;;;;;;;24.15;59.70996;939.9333;;;;
2019/08/31 06:51:15;;;;;;;6.6;6;;;;;;;23.71;60.94434;939.8972;;;;
2019/08/31 06:53:24;;;;;;;8.7;6.1;;;;;;;23.42;62.05762;939.9312;;;;
2019/08/31 06:56:15;;;;;;;7.2;6.2;;;;;;;23.21;61.94727;939.9781;;;;
2019/08/31 06:58:40;;;;;;;9.2;6.3;;;;;;;23.3;61.1582;939.938;;;;
2019/08/31 07:01:11;;;;;;;8.9;6.3;;;;;;;23.35;63.31738;939.8808;;;;
2019/08/31 07:03:49;;;;;;;10.8;6.1;;;;;;;24.11;60.22168;939.8837;;;;
2019/08/31 07:06:07;;;;;;;7;6.1;;;;;;;24.78;58.37793;939.866;;;;
2019/08/31 07:08:35;;;;;;;6.2;5.2;;;;;;;24.83;56.03711;939.7458;;;;
2019/08/31 07:11:19;;;;;;;6.1;5.5;;;;;;;24.95;55.35645;939.8101;;;;
2019/08/31 07:13:48;;;;;;;5.9;5.2;;;;;;;26.08;55.23633;939.8092;;;;
2019/08/31 07:16:29;;;;;;;5.9;5.3;;;;;;;26.68;51.7334;939.7079;;;;
2019/08/31 07:18:53;;;;;;;6;5.2;;;;;;;26.71;50.70605;939.7253;;;;
2019/08/31 07:21:21;;;;;;;9.4;5.3;;;;;;;27.18;49.87109;939.7059;;;;
2019/08/31 07:23:48;;;;;;;5.7;5.1;;;;;;;27.99;48.92578;939.6791;;;;
2019/08/31 07:26:20;;;;;;;7.4;4.8;;;;;;;28.72;47.86426;939.6033;;;;
2019/08/31 07:28:52;;;;;;;6.6;4.5;;;;;;;29.31;43.54395;939.6219;;;;
2019/08/31 07:34:10;;;;;;;5.1;4.6;;;;;;;29.82;42.8291;939.5441;;;;
2019/08/31 07:36:53;;;;;;;5.5;4.3;;;;;;;30.59;42.45996;939.507;;;;
2019/08/31 07:39:16;;;;;;;5.4;4.6;;;;;;;31.19;41.43945;939.4483;;;;
2019/08/31 07:41:47;;;;;;;5.3;4.4;;;;;;;31.1;40.1748;939.4363;;;;
2019/08/31 07:44:21;;;;;;;4.7;4.2;;;;;;;31.88;37.89648;939.3709;;;;
2019/08/31 07:46:43;;;;;;;5.9;4.3;;;;;;;33.09;36.66406;939.3373;;;;
2019/08/31 07:49:16;;;;;;;5.9;4;;;;;;;32.6;36.82813;939.4012;;;;
2019/08/31 07:52:00;;;;;;;7.4;4.2;;;;;;;33.39;37.92676;939.3528;;;;
2019/08/31 07:54:28;;;;;;;4.1;3.8;;;;;;;34.15;36.80957;939.3702;;;;
2019/08/31 07:56:51;;;;;;;5.9;3.8;;;;;;;35;35.85254;939.3364;;;;
2019/08/31 07:59:20;;;;;;;6.9;4.2;;;;;;;36.43;33.58105;939.3123;;;;
2019/08/31 08:02:13;;;;;;;4.2;3.7;;;;;;;37.39;31.16504;939.2769;;;;
2019/08/31 08:04:50;;;;;;;6;3.5;;;;;;;37.73;29.46484;939.2612;;;;
2019/08/31 08:07:17;;;;;;;3.8;3.4;;;;;;;37.72;29.12402;939.2238;;;;
2019/08/31 08:12:13;;;;;;;3.7;3.1;;;;;;;36.85;30.61914;939.2051;;;;
2019/08/31 08:14:55;;;;;;;4.8;3.7;;;;;;;37.03;30.20801;939.1975;;;;
2019/08/31 08:17:09;;;;;;;4.2;3.2;;;;;;;37.6;30.83984;939.162;;;;
2019/08/31 08:19:33;;;;;;;3.6;3.3;;;;;;;38.62;30.1543;939.1156;;;;
2019/08/31 08:22:05;;;;;;;5.2;3.4;;;;;;;38.49;28.44434;939.1096;;;;
2019/08/31 08:24:36;;;;;;;4.4;3.5;;;;;;;38.53;29.38184;939.0566;;;;
2019/08/31 08:27:06;;;;;;;5.5;3.5;;;;;;;38.78;29.13086;939.0396;;;;
2019/08/31 08:29:33;;;;;;;8.1;3.2;;;;;;;39.44;26.88281;939.0631;;;;
2019/08/31 08:32:06;;;;;;;8;3.4;;;;;;;39.73;26.63086;939.0199;;;;
2019/08/31 08:34:34;;;;;;;5;2.9;;;;;;;39.02;27.07715;939.0422;;;;
2019/08/31 08:37:19;;;;;;;3.2;2.8;;;;;;;38.34;27.01367;938.9584;;;;
2019/08/31 08:39:45;;;;;;;5.3;3.1;;;;;;;38.77;26.79492;938.9533;;;;
2019/08/31 08:42:13;;;;;;;4.1;3;;;;;;;38.77;27.29395;938.92;;;;
2019/08/31 08:45:17;;;;;;;5.9;3.2;;;;;;;39.12;26.7666;938.8969;;;;
2019/08/31 08:48:17;;;;;;;4.4;3;;;;;;;39.13;26.21973;938.9203;;;;
2019/08/31 08:51:18;;;;;;;3.4;3.1;;;;;;;38.63;26.66504;938.8763;;;;
2019/08/31 08:53:54;;;;;;;4.9;4;;;;;;;37.86;30.62695;938.8974;;;;
2019/08/31 08:56:29;;;;;;;4.4;2.9;;;;;;;37.33;29.52441;938.8622;;;;
2019/08/31 08:59:24;;;;;;;3.8;3.4;;;;;;;36.69;30.74219;938.9026;;;;
2019/08/31 09:01:54;;;;;;;3.3;3;;;;;;;36.29;30.88477;938.8334;;;;
2019/08/31 09:04:25;;;;;;;4.8;3.3;;;;;;;35.41;31.33301;938.838;;;;
2019/08/31 09:07:42;;;;;;;5.7;4.4;;;;;;;34.89;31.24902;938.8003;;;;
2019/08/31 09:10:17;;;;;;;17.4;8;;;;;;;34.22;35.49023;938.8101;;;;
2019/08/31 09:12:33;;;;;;;38.5;14.9;;;;;;;33.89;36.10156;938.8085;;;;
2019/08/31 09:15:13;;;;;;;22;9.1;;;;;;;33.6;39.9043;938.748;;;;
2019/08/31 09:20:10;;;;;;;9.1;5.7;;;;;;;32.89;43.15625;938.8027;;;;
2019/08/31 09:22:41;;;;;;;4.4;4;;;;;;;32.3;43.93945;938.7598;;;;
2019/08/31 09:25:08;;;;;;;6.7;5;;;;;;;31.98;44.65137;938.7368;;;;
2019/08/31 09:27:42;;;;;;;4.8;4.3;;;;;;;31.81;44.91016;938.741;;;;
2019/08/31 09:30:13;;;;;;;5.1;4;;;;;;;31.98;43.40527;938.6894;;;;
2019/08/31 09:32:48;;;;;;;5.2;3.6;;;;;;;32.11;46.04199;938.7629;;;;
2019/08/31 09:35:10;;;;;;;5.4;4.1;;;;;;;32.37;42.99805;938.6705;;;;
2019/08/31 09:37:39;;;;;;;6;4.3;;;;;;;32.56;42.93262;938.6884;;;;
2019/08/31 09:40:00;;;;;;;5.6;4.2;;;;;;;32.78;42.85742;938.6931;;;;
2019/08/31 09:42:37;;;;;;;4.4;4;;;;;;;32.8;43.0625;938.7292;;;;
2019/08/31 09:45:08;;;;;;;5.2;4.1;;;;;;;32.4;43.44531;938.6958;;;;
2019/08/31 09:47:40;;;;;;;5.3;4.5;;;;;;;32.45;43.15039;938.6323;;;;
2019/08/31 09:50:21;;;;;;;5.2;4.3;;;;;;;32.27;44.08008;938.6259;;;;
2019/08/31 09:52:55;;;;;;;6.6;4.5;;;;;;;32.04;43.35059;938.6094;;;;
2019/08/31 09:55:28;;;;;;;5.1;4.5;;;;;;;31.94;45.10254;938.554;;;;
2019/08/31 09:58:11;;;;;;;8.2;4.8;;;;;;;31.97;46.04004;938.5181;;;;
2019/08/31 10:00:50;;;;;;;6.3;4.7;;;;;;;31.72;46.90234;938.538;;;;
2019/08/31 10:03:18;;;;;;;7.9;4.7;;;;;;;31.62;45.38281;938.5684;;;;
2019/08/31 10:05:59;;;;;;;5.3;4.5;;;;;;;31.85;45.22559;938.5212;;;;
2019/08/31 10:08:14;;;;;;;6.5;4.6;;;;;;;32.08;44.9248;938.5153;;;;
2019/08/31 10:10:37;;;;;;;6.9;4.6;;;;;;;32.21;45.02246;938.4878;;;;
2019/08/31 10:13:12;;;;;;;7.9;4.7;;;;;;;32.35;43.5127;938.4484;;;;
2019/08/31 10:16:00;;;;;;;5.7;4.3;;;;;;;32.66;42.61816;938.4445;;;;
2019/08/31 10:18:29;;;;;;;6.8;4.9;;;;;;;32.59;41.11133;938.4377;;;;
2019/08/31 10:21:09;;;;;;;11.6;5.1;;;;;;;32.54;42.82227;938.4246;;;;
2019/08/31 10:24:03;;;;;;;31.6;12.1;;;;;;;32.51;43.81641;938.438;;;;
2019/08/31 10:26:23;;;;;;;5.2;4.7;;;;;;;32.32;42.69336;938.3633;;;;
2019/08/31 10:28:54;;;;;;;5.1;4.6;;;;;;;31.88;43.25195;938.3558;;;;
2019/08/31 10:31:20;;;;;;;5.5;4.8;;;;;;;31.76;43.88672;938.375;;;;
2019/08/31 10:34:03;;;;;;;5.6;5;;;;;;;31.78;44.64355;938.3208;;;;
2019/08/31 10:36:13;;;;;;;5.8;5;;;;;;;32.05;45.10156;938.2781;;;;
2019/08/31 10:38:50;;;;;;;8.1;5.3;;;;;;;31.99;46.49707;938.2266;;;;
2019/08/31 10:41:13;;;;;;;7.1;4.9;;;;;;;32.16;45.67578;938.264;;;;
2019/08/31 10:43:55;;;;;;;5.3;4.8;;;;;;;32.35;42.20508;938.15;;;;
2019/08/31 10:46:23;;;;;;;5.2;4.4;;;;;;;32.54;41.13086;938.175;;;;
2019/08/31 10:48:51;;;;;;;6.1;4.6;;;;;;;33.06;41.38184;938.1238;;;;
2019/08/31 10:51:19;;;;;;;8.4;5;;;;;;;33.14;41.2334;938.0942;;;;
2019/08/31 10:53:43;;;;;;;6.1;4.4;;;;;;;33.64;41.07422;938.0517;;;;
2019/08/31 10:56:15;;;;;;;6.4;4.7;;;;;;;33.92;40.2334;938.0167;;;;
2019/08/31 10:58:43;;;;;;;5.3;4.8;;;;;;;34.01;40.13379;937.9921;;;;
2019/08/31 11:01:15;;;;;;;6.5;4.4;;;;;;;33.98;41.20117;938.0436;;;;
2019/08/31 11:03:48;;;;;;;5.1;4.6;;;;;;;33.83;41.19922;938.0308;;;;
2019/08/31 11:06:12;;;;;;;5.5;4.6;;;;;;;33.73;40.31348;938.0294;;;;
2019/08/31 11:08:45;;;;;;;6.2;4.7;;;;;;;33.19;39.60449;937.9654;;;;
2019/08/31 11:11:18;;;;;;;6.7;4.6;;;;;;;32.87;42.32617;937.9693;;;;
2019/08/31 11:13:54;;;;;;;5.4;4.5;;;;;;;33.15;42.20703;937.9272;;;;
2019/08/31 11:16:40;;;;;;;5.2;4.7;;;;;;;33.31;40.91211;937.9256;;;;
2019/08/31 11:19:05;;;;;;;5.2;4.4;;;;;;;32.75;41.04199;937.9832;;;;
2019/08/31 11:21:31;;;;;;;6.5;4.6;;;;;;;32.85;40.89453;937.9356;;;;
2019/08/31 11:24:08;;;;;;;5.2;4.7;;;;;;;32.81;40.89258;937.8767;;;;
2019/08/31 11:26:39;;;;;;;9.2;4.8;;;;;;;32.78;41.69336;937.8386;;;;
2019/08/31 11:29:09;;;;;;;5.2;4.7;;;;;;;32.75;43.03516;937.8102;;;;
2019/08/31 11:31:38;;;;;;;6.1;4.5;;;;;;;32.81;42.40527;937.8107;;;;
2019/08/31 11:34:12;;;;;;;6.7;4.5;;;;;;;32.42;41.09668;937.7983;;;;
2019/08/31 11:36:43;;;;;;;5.1;4.6;;;;;;;32.63;42.26758;937.7693;;;;
2019/08/31 11:39:19;;;;;;;7.1;4.5;;;;;;;32.52;41.28418;937.7869;;;;
2019/08/31 11:41:41;;;;;;;4.6;4.2;;;;;;;32.4;40.77051;937.7873;;;;
2019/08/31 11:44:12;;;;;;;6.9;4.3;;;;;;;32.33;40.57129;937.8014;;;;
2019/08/31 11:47:02;;;;;;;5.3;4.8;;;;;;;32.25;42.66406;937.7828;;;;
2019/08/31 11:49:24;;;;;;;6.1;4.8;;;;;;;32.08;42.89941;937.7303;;;;
2019/08/31 11:51:43;;;;;;;5.2;4.5;;;;;;;31.82;43.73828;937.6981;;;;
2019/08/31 11:54:12;;;;;;;4.8;4.4;;;;;;;31.87;43.70605;937.7137;;;;
2019/08/31 11:56:38;;;;;;;7.5;4.4;;;;;;;31.84;43.55957;937.6738;;;;
2019/08/31 11:58:59;;;;;;;5.1;4.6;;;;;;;31.77;44.2959;937.7237;;;;
2019/08/31 12:01:25;;;;;;;6.6;5.2;;;;;;;31.84;43.83496;937.6534;;;;
2019/08/31 12:03:57;;;;;;;5.1;4.6;;;;;;;31.81;43.20801;937.6574;;;;
2019/08/31 12:06:30;;;;;;;7.2;4.9;;;;;;;31.86;44.06445;937.6174;;;;
2019/08/31 12:09:04;;;;;;;7.4;4.9;;;;;;;31.8;44.07031;937.5616;;;;
2019/08/31 12:11:30;;;;;;;5.6;4.4;;;;;;;31.66;43.50586;937.5192;;;;
2019/08/31 12:13:59;;;;;;;6.7;4.5;;;;;;;31.74;42.17188;937.5414;;;;
2019/08/31 12:16:33;;;;;;;5.9;4.6;;;;;;;31.48;42.83008;937.4481;;;;
2019/08/31 12:18:50;;;;;;;6.3;4.7;;;;;;;31.49;43.15527;937.5379;;;;
2019/08/31 12:21:19;;;;;;;5.2;4.7;;;;;;;31.51;43.69531;937.4645;;;;
2019/08/31 12:23:49;;;;;;;7.3;4.9;;;;;;;31.39;43.43262;937.38;;;;
2019/08/31 12:28:43;;;;;;;5.2;4.7;;;;;;;31.26;43.26465;937.3215;;;;
2019/08/31 12:31:07;;;;;;;6.8;4.9;;;;;;;31.21;44.18066;937.3223;;;;
2019/08/31 12:33:38;;;;;;;6.4;4.7;;;;;;;31.25;44.13672;937.267;;;;
2019/08/31 12:36:09;;;;;;;5;4.6;;;;;;;31.32;43.36621;937.2697;;;;
2019/08/31 12:38:34;;;;;;;9.6;5;;;;;;;31.32;46.27344;937.192;;;;
2019/08/31 12:41:00;;;;;;;7.3;5;;;;;;;31.31;43.3291;937.2504;;;;
2019/08/31 12:43:30;;;;;;;6.7;4.8;;;;;;;31.25;44.66211;937.1972;;;;
2019/08/31 12:45:58;;;;;;;5.3;4.5;;;;;;;31.18;43.00488;937.1517;;;;
2019/08/31 12:48:29;;;;;;;6.1;4.7;;;;;;;31.08;43.61816;937.1608;;;;
2019/08/31 12:51:01;;;;;;;5.4;4.5;;;;;;;31.07;44.88477;937.1246;;;;
2019/08/31 12:53:37;;;;;;;5.5;5;;;;;;;31.16;45.89941;937.1285;;;;
2019/08/31 12:56:14;;;;;;;5.8;4.8;;;;;;;31.08;45.69922;937.0568;;;;
2019/08/31 12:58:43;;;;;;;6.7;4.7;;;;;;;31.15;45.06055;937.0045;;;;
2019/08/31 13:01:12;;;;;;;5.3;4.8;;;;;;;31.08;44.84961;936.9482;;;;
2019/08/31 13:03:51;;;;;;;5.8;4.8;;;;;;;31;45.54785;936.9285;;;;
2019/08/31 13:06:25;;;;;;;5.9;5.2;;;;;;;31.14;45.7168;936.9539;;;;
2019/08/31 13:08:50;;;;;;;5.3;4.8;;;;;;;31.11;44.53027;936.837;;;;
2019/08/31 13:11:38;;;;;;;6;4.5;;;;;;;30.96;44.8623;936.8862;;;;
2019/08/31 13:14:07;;;;;;;5.3;4.8;;;;;;;30.91;45.9082;936.8049;;;;
2019/08/31 13:19:21;;;;;;;5.3;4.8;;;;;;;31;45.55859;936.7834;;;;
2019/08/31 13:21:46;;;;;;;7.6;5;;;;;;;30.82;46.87988;936.7236;;;;
2019/08/31 13:24:18;;;;;;;6.1;5;;;;;;;30.88;46.37207;936.7681;;;;
2019/08/31 13:27:34;;;;;;;7.1;5.3;;;;;;;30.39;46.81055;936.7238;;;;
2019/08/31 13:30:04;;;;;;;6.7;5.5;;;;;;;30.15;48.50488;936.7583;;;;
2019/08/31 13:32:32;;;;;;;5.7;5.1;;;;;;;30.35;47.3457;936.7582;;;;
2019/08/31 13:35:06;;;;;;;5.5;5;;;;;;;30.21;48.0957;936.7438;;;;
2019/08/31 13:38:24;;;;;;;5.9;5.4;;;;;;;29.88;49.22852;936.744;;;;
2019/08/31 13:40:48;;;;;;;6;5.4;;;;;;;29.87;47.93848;936.6892;;;;
2019/08/31 13:43:12;;;;;;;5.8;5.3;;;;;;;29.81;49.44727;936.6934;;;;
2019/08/31 13:45:51;;;;;;;5.9;5.3;;;;;;;29.99;49.93262;936.6168;;;;
2019/08/31 13:48:27;;;;;;;6.1;5.3;;;;;;;29.65;50.45605;936.6334;;;;
2019/08/31 13:50:59;;;;;;;5.9;5.4;;;;;;;29.44;51.61035;936.5803;;;;
2019/08/31 13:53:37;;;;;;;8;6;;;;;;;29.48;51.29492;936.5397;;;;
2019/08/31 13:56:23;;;;;;;6.2;5.6;;;;;;;29.66;50.88477;936.592;;;;
2019/08/31 13:59:29;;;;;;;6.7;6;;;;;;;29.82;52.27539;936.5422;;;;
2019/08/31 14:01:53;;;;;;;7.2;5.8;;;;;;;30.18;51.83984;936.4486;;;;
2019/08/31 14:04:33;;;;;;;6.1;5.5;;;;;;;30.01;49.92188;936.4636;;;;
2019/08/31 14:07:08;;;;;;;6.9;6.2;;;;;;;29.91;51.00879;936.5097;;;;
2019/08/31 14:09:31;;;;;;;6.4;5.8;;;;;;;29.72;51.45313;936.4999;;;;
2019/08/31 14:12:02;;;;;;;6.7;6;;;;;;;29.81;51.24805;936.4724;;;;
2019/08/31 14:14:37;;;;;;;6.2;5.6;;;;;;;29.79;51.24609;936.432;;;;
2019/08/31 14:17:01;;;;;;;5.9;5.4;;;;;;;29.98;51.2793;936.4584;;;;
2019/08/31 14:19:43;;;;;;;8.2;5.7;;;;;;;30.02;50.4248;936.4714;;;;
2019/08/31 14:23:17;;;;;;;7.4;5.5;;;;;;;29.77;50.71973;936.4144;;;;
2019/08/31 14:26:28;;;;;;;8.2;5.9;;;;;;;29.36;52.91309;936.3336;;;;
2019/08/31 14:28:58;;;;;;;7.6;5.9;;;;;;;29.66;51.79102;936.3222;;;;
2019/08/31 14:31:30;;;;;;;6.3;5.7;;;;;;;29.9;51.05469;936.2831;;;;
2019/08/31 14:34:07;;;;;;;6.6;6;;;;;;;30.01;51.95117;936.3148;;;;
2019/08/31 14:36:37;;;;;;;8.6;6.4;;;;;;;30.08;51.81641;936.343;;;;
2019/08/31 14:39:11;;;;;;;6.8;6.1;;;;;;;30.07;51.52832;936.3397;;;;
2019/08/31 14:41:27;;;;;;;9.5;5.9;;;;;;;30.26;51.24023;936.3347;;;;
2019/08/31 14:43:56;;;;;;;6.7;5.8;;;;;;;30.32;51.25781;936.3105;;;;
2019/08/31 14:46:34;;;;;;;6.5;5.8;;;;;;;30.31;51.63867;936.2894;;;;
2019/08/31 14:49:10;;;;;;;6.8;6.2;;;;;;;29.97;52.08887;936.2894;;;;
2019/08/31 14:51:37;;;;;;;7.3;6.2;;;;;;;29.82;52.64355;936.2759;;;;
2019/08/31 14:54:13;;;;;;;7.5;6;;;;;;;29.84;52.61133;936.2739;;;;
2019/08/31 14:56:37;;;;;;;6.3;5.7;;;;;;;29.74;51.9082;936.2897;;;;
2019/08/31 14:59:09;;;;;;;6.7;6;;;;;;;29.71;52.26172;936.2737;;;;
2019/08/31 15:01:42;;;;;;;9;6.4;;;;;;;29.55;53.16016;936.1948;;;;
2019/08/31 15:04:14;;;;;;;8.2;6.5;;;;;;;29.39;52.85742;936.2347;;;;
2019/08/31 15:07:18;;;;;;;7.8;6.5;;;;;;;29.05;53.53125;936.223;;;;
2019/08/31 15:12:21;;;;;;;8.5;7;;;;;;;28.7;54.66797;936.1833;;;;
2019/08/31 15:15:17;;;;;;;10.1;6.8;;;;;;;28.63;54.64746;936.1777;;;;
2019/08/31 15:17:55;;;;;;;8.8;7;;;;;;;28.55;54.75586;936.1672;;;;
2019/08/31 15:20:29;;;;;;;11.8;6.8;;;;;;;28.36;55.36426;936.1067;;;;
2019/08/31 15:23:03;;;;;;;10.9;7.4;;;;;;;28.31;55.39355;936.1512;;;;
2019/08/31 15:25:34;;;;;;;10.3;7.3;;;;;;;28.32;56.13184;936.1967;;;;
2019/08/31 15:27:58;;;;;;;9.2;7.2;;;;;;;28.2;56.02148;936.212;;;;
2019/08/31 15:30:27;;;;;;;8.5;7;;;;;;;28.11;56.61523;936.1696;;;;
2019/08/31 15:32:57;;;;;;;8;7.2;;;;;;;28.12;57.79395;936.2023;;;;
2019/08/31 15:35:20;;;;;;;7.4;6.8;;;;;;;27.99;58.20313;936.2095;;;;
2019/08/31 15:37:51;;;;;;;11.2;7.6;;;;;;;27.86;59.35059;936.1878;;;;
2019/08/31 15:40:16;;;;;;;8.1;7.3;;;;;;;27.75;57.94727;936.1397;;;;
2019/08/31 15:42:41;;;;;;;7.3;6.2;;;;;;;27.74;55.66797;936.1155;;;;
2019/08/31 15:45:11;;;;;;;7.4;6.3;;;;;;;27.55;57.37598;936.0938;;;;
2019/08/31 15:47:42;;;;;;;9.7;5.1;;;;;;;27.35;53.76758;936.103;;;;
2019/08/31 15:50:07;;;;;;;5.9;5;;;;;;;27.32;51.98535;936.116;;;;
2019/08/31 15:52:34;;;;;;;7.2;4.9;;;;;;;27.22;50.29004;936.0673;;;;
2019/08/31 15:55:04;;;;;;;15.2;13.5;;;;;;;27.11;50.39648;936.0503;;;;
2019/08/31 15:57:37;;;;;;;17.8;11.4;;;;;;;27.05;52.6416;936.0703;;;;
2019/08/31 16:00:06;;;;;;;5.8;4.7;;;;;;;27.04;52.62891;936.0326;;;;
2019/08/31 16:02:38;;;;;;;7.3;4.6;;;;;;;27.02;50.75293;936.04;;;;
2019/08/31 16:05:08;;;;;;;5.4;4.3;;;;;;;26.99;52.5752;936.0844;;;;
2019/08/31 16:07:32;;;;;;;8.5;6;;;;;;;26.81;52.50781;936.158;;;;
2019/08/31 16:10:03;;;;;;;6.4;4.9;;;;;;;26.6;53.19336;936.2302;;;;
2019/08/31 16:12:38;;;;;;;8.1;4.5;;;;;;;26.4;54.08105;936.3455;;;;
2019/08/31 16:15:12;;;;;;;7.4;4.9;;;;;;;26.17;55.24707;936.3292;;;;
2019/08/31 16:17:26;;;;;;;7.9;4.9;;;;;;;26.14;56.75879;936.3762;;;;
2019/08/31 16:19:55;;;;;;;9.8;5.4;;;;;;;26.02;56.61328;936.3969;;;;
2019/08/31 16:22:26;;;;;;;8.3;5.2;;;;;;;26.02;56.86133;936.4462;;;;